Time;durP1;ratioP1;P1;durP2;ratioP2;P2;SDS_P1;SDS_P2;PMS_P1;PMS_P2;Temp;Humidity;BMP_temperature;BMP_pressure;BME280_temperature;BME280_humidity;BME280_pressure;Samples;Min_cycle;Max_cycle;Signal;HPM_P1;HPM_P2
2021/01/26 00:01:28;;;;;;;24.37;13.87;;;3.70;95.00;;;;;;5076213;28;20428;-71
2021/01/26 00:03:59;;;;;;;19.37;14.10;;;3.70;95.30;;;;;;5076000;28;20467;-71
2021/01/26 00:06:26;;;;;;;14.53;11.57;;;3.70;94.90;;;;;;5076145;28;20435;-71
2021/01/26 00:08:53;;;;;;;24.43;13.70;;;3.80;95.00;;;;;;5076051;28;20452;-71
2021/01/26 00:11:20;;;;;;;19.40;14.77;;;3.80;95.00;;;;;;5075814;28;20487;-71
2021/01/26 00:13:47;;;;;;;20.13;13.20;;;3.80;95.00;;;;;;5075833;28;20448;-71
2021/01/26 00:16:16;;;;;;;18.90;12.80;;;3.80;94.90;;;;;;5075966;28;20450;-71
2021/01/26 00:18:44;;;;;;;26.40;14.27;;;3.80;95.00;;;;;;5075819;28;20537;-71
2021/01/26 00:21:11;;;;;;;21.50;13.03;;;3.80;94.90;;;;;;5075845;28;20452;-71
2021/01/26 00:23:38;;;;;;;21.47;13.50;;;3.80;95.00;;;;;;5075603;28;20452;-71
2021/01/26 00:26:05;;;;;;;20.20;12.93;;;3.80;94.90;;;;;;5075743;28;20970;-71
2021/01/26 00:28:34;;;;;;;26.90;13.37;;;3.90;95.00;;;;;;5075709;28;20454;-71
2021/01/26 00:31:01;;;;;;;23.30;12.70;;;3.90;94.90;;;;;;5075412;28;20480;-71
2021/01/26 00:33:34;;;;;;;19.47;11.93;;;3.90;94.80;;;;;;5075276;28;20452;-71
2021/01/26 00:36:04;;;;;;;20.57;12.70;;;3.90;94.80;;;;;;5075892;28;20460;-70
2021/01/26 00:38:31;;;;;;;19.23;12.87;;;3.90;94.70;;;;;;5075426;28;20447;-70
2021/01/26 00:40:58;;;;;;;18.60;13.27;;;3.90;94.70;;;;;;5075584;28;20537;-70
2021/01/26 00:43:25;;;;;;;21.40;13.27;;;4.00;94.80;;;;;;5075455;28;20441;-70
2021/01/26 00:45:54;;;;;;;28.03;13.93;;;3.90;94.70;;;;;;5075309;28;20546;-70
2021/01/26 00:48:21;;;;;;;17.90;12.87;;;3.90;94.70;;;;;;5075328;28;20440;-70
2021/01/26 00:50:49;;;;;;;22.97;11.83;;;4.00;94.80;;;;;;5075150;28;20513;-70
2021/01/26 00:53:16;;;;;;;20.50;12.53;;;4.00;94.70;;;;;;5075232;28;20539;-70
2021/01/26 00:55:46;;;;;;;21.40;13.40;;;4.00;94.70;;;;;;5075152;28;20468;-71
2021/01/26 00:58:14;;;;;;;23.50;11.93;;;4.00;94.50;;;;;;5075140;28;20491;-71
2021/01/26 01:00:41;;;;;;;22.50;13.33;;;4.00;94.50;;;;;;5075400;28;20432;-71
2021/01/26 01:03:09;;;;;;;20.90;13.57;;;4.00;94.50;;;;;;5075070;28;20463;-71
2021/01/26 01:05:36;;;;;;;17.43;12.17;;;4.10;94.60;;;;;;5074988;28;20456;-71
2021/01/26 01:08:04;;;;;;;19.67;12.10;;;4.10;94.60;;;;;;5074825;28;20449;-71
2021/01/26 01:10:36;;;;;;;18.63;11.43;;;4.10;94.70;;;;;;5074602;28;20510;-71
2021/01/26 01:13:03;;;;;;;21.87;12.77;;;4.10;94.60;;;;;;5075224;28;20901;-71
2021/01/26 01:15:30;;;;;;;24.33;12.10;;;4.10;94.70;;;;;;5074753;28;20510;-71
2021/01/26 01:17:57;;;;;;;19.27;12.40;;;4.20;94.70;;;;;;5074803;28;20456;-71
2021/01/26 01:20:26;;;;;;;26.13;11.00;;;4.10;94.60;;;;;;5074724;28;20515;-71
2021/01/26 01:22:53;;;;;;;19.43;11.20;;;4.10;94.70;;;;;;5074583;28;20444;-70
2021/01/26 01:25:21;;;;;;;17.63;11.13;;;4.00;94.80;;;;;;5074565;28;20514;-71
2021/01/26 01:27:48;;;;;;;14.67;9.53;;;4.10;94.80;;;;;;5074599;28;20474;-71
2021/01/26 01:30:20;;;;;;;17.20;11.17;;;4.10;94.90;;;;;;5075285;28;20998;-70
2021/01/26 01:32:47;;;;;;;21.00;11.33;;;4.10;95.10;;;;;;5074709;28;20469;-70
2021/01/26 01:35:16;;;;;;;20.23;11.00;;;4.10;95.20;;;;;;5075400;28;20496;-70
2021/01/26 01:37:43;;;;;;;16.30;9.80;;;4.10;95.30;;;;;;5074405;28;20448;-70
2021/01/26 01:40:17;;;;;;;26.40;11.03;;;4.10;95.30;;;;;;5074454;28;20440;-70
2021/01/26 01:42:48;;;;;;;14.37;10.43;;;4.10;95.40;;;;;;5075625;28;20491;-70
2021/01/26 01:45:16;;;;;;;14.80;9.47;;;4.00;95.30;;;;;;5074419;28;20564;-70
2021/01/26 01:47:50;;;;;;;15.67;11.53;;;4.10;95.40;;;;;;5074887;28;20461;-70
2021/01/26 01:50:21;;;;;;;18.93;10.10;;;4.00;95.20;;;;;;5073535;28;20524;-70
2021/01/26 01:52:55;;;;;;;16.43;10.30;;;4.00;95.20;;;;;;5074070;28;20439;-70
2021/01/26 01:55:23;;;;;;;17.17;11.10;;;4.00;95.30;;;;;;5073929;28;20497;-70
2021/01/26 01:57:54;;;;;;;13.60;10.13;;;4.00;95.40;;;;;;5074328;28;20448;-70
2021/01/26 02:00:23;;;;;;;18.73;10.87;;;4.00;95.40;;;;;;5074064;28;20431;-71
2021/01/26 02:02:55;;;;;;;16.03;10.60;;;4.00;95.50;;;;;;5073860;28;20456;-70
2021/01/26 02:05:23;;;;;;;15.33;10.07;;;4.00;95.40;;;;;;5073769;28;20476;-71
2021/01/26 02:07:55;;;;;;;20.13;9.77;;;4.00;95.30;;;;;;5073742;28;20444;-71
2021/01/26 02:10:27;;;;;;;21.27;11.73;;;4.00;95.50;;;;;;5073824;28;20537;-70
2021/01/26 02:12:55;;;;;;;17.53;9.63;;;4.00;95.90;;;;;;5074042;28;20436;-71
2021/01/26 02:15:22;;;;;;;15.50;8.93;;;4.00;95.40;;;;;;5073602;28;20570;-71
2021/01/26 02:18:10;;;;;;;19.70;10.00;;;4.00;95.50;;;;;;5073647;28;20448;-71
2021/01/26 02:21:11;;;;;;;19.80;10.90;;;4.00;95.60;;;;;;5073874;28;20431;-71
2021/01/26 02:24:03;;;;;;;18.23;11.00;;;4.00;95.80;;;;;;5073754;28;20502;-71
2021/01/26 02:27:02;;;;;;;17.57;10.80;;;4.00;95.90;;;;;;5073511;28;20432;-70
2021/01/26 02:30:11;;;;;;;16.90;11.00;;;4.00;96.00;;;;;;5070369;28;20451;-71
2021/01/26 02:33:01;;;;;;;16.53;10.90;;;4.00;95.90;;;;;;5073473;28;20442;-70
2021/01/26 02:35:44;;;;;;;12.33;9.83;;;4.00;95.80;;;;;;5073306;28;20473;-71
2021/01/26 02:38:44;;;;;;;19.17;10.77;;;4.00;95.90;;;;;;5073375;28;20436;-71
2021/01/26 02:41:20;;;;;;;14.87;10.40;;;4.00;95.90;;;;;;5073321;28;20436;-70
2021/01/26 02:44:03;;;;;;;15.50;12.00;;;4.00;96.00;;;;;;5073257;28;20462;-71
2021/01/26 02:46:46;;;;;;;15.63;10.60;;;4.00;96.10;;;;;;5073237;28;20432;-71
2021/01/26 02:49:22;;;;;;;14.57;10.50;;;4.00;96.20;;;;;;5073265;28;20792;-71
2021/01/26 02:51:56;;;;;;;17.10;10.80;;;4.00;96.30;;;;;;5073206;28;20977;-71
2021/01/26 02:54:29;;;;;;;11.60;9.57;;;4.00;96.40;;;;;;5073111;28;20471;-71
2021/01/26 02:57:04;;;;;;;12.50;9.90;;;4.00;96.50;;;;;;5073191;28;20424;-70
2021/01/26 02:59:44;;;;;;;27.60;11.10;;;4.00;96.70;;;;;;5073089;28;20460;-71
2021/01/26 03:02:18;;;;;;;15.90;9.37;;;4.00;96.80;;;;;;5072983;28;20428;-71
2021/01/26 03:04:50;;;;;;;16.20;9.57;;;4.00;96.40;;;;;;5073015;28;20461;-71
2021/01/26 03:07:23;;;;;;;14.13;9.60;;;4.00;96.20;;;;;;5073076;28;20424;-71
2021/01/26 03:09:55;;;;;;;16.93;8.73;;;4.00;96.20;;;;;;5073756;28;20954;-71
2021/01/26 03:12:26;;;;;;;17.07;8.77;;;4.00;96.30;;;;;;5072924;28;20855;-70
2021/01/26 03:14:57;;;;;;;14.50;8.60;;;4.00;96.20;;;;;;5072890;28;20504;-71
2021/01/26 03:17:30;;;;;;;15.73;8.20;;;4.00;96.20;;;;;;5072958;28;20489;-71
2021/01/26 03:20:03;;;;;;;16.47;9.37;;;4.00;96.10;;;;;;5072919;28;20432;-70
2021/01/26 03:22:33;;;;;;;17.10;8.30;;;4.00;96.00;;;;;;5072890;28;20434;-71
2021/01/26 03:25:03;;;;;;;18.37;8.77;;;4.00;96.00;;;;;;5072780;28;20471;-71
2021/01/26 03:27:37;;;;;;;12.30;8.13;;;4.10;96.00;;;;;;5072682;28;20949;-70
2021/01/26 03:30:10;;;;;;;18.50;9.90;;;4.10;96.00;;;;;;5074016;28;20491;-70
2021/01/26 03:32:45;;;;;;;20.63;9.70;;;4.10;96.10;;;;;;5072928;28;20434;-70
2021/01/26 03:35:14;;;;;;;14.30;9.23;;;4.10;96.10;;;;;;5072677;28;20483;-70
2021/01/26 03:37:48;;;;;;;17.37;9.77;;;4.00;96.10;;;;;;5073071;28;20447;-70
2021/01/26 03:40:15;;;;;;;21.33;10.07;;;4.10;96.30;;;;;;5072592;28;20440;-70
2021/01/26 03:42:43;;;;;;;15.37;9.73;;;4.10;96.60;;;;;;5072757;28;20435;-70
2021/01/26 03:45:13;;;;;;;16.57;9.80;;;4.00;96.60;;;;;;5072872;28;20518;-71
2021/01/26 03:47:48;;;;;;;12.27;9.23;;;4.00;96.70;;;;;;5072683;28;20432;-70
2021/01/26 03:50:34;;;;;;;21.10;9.90;;;4.00;96.60;;;;;;5073357;28;20509;-71
2021/01/26 03:53:30;;;;;;;15.60;9.77;;;4.00;96.90;;;;;;5072579;28;20441;-71
2021/01/26 03:56:03;;;;;;;19.67;9.70;;;4.00;96.90;;;;;;5071099;28;20522;-71
2021/01/26 03:58:49;;;;;;;14.57;9.40;;;3.90;97.10;;;;;;5072651;28;20458;-71
2021/01/26 04:01:23;;;;;;;19.53;10.20;;;4.00;97.10;;;;;;5072582;28;20518;-71
2021/01/26 04:04:05;;;;;;;14.33;8.70;;;4.00;97.10;;;;;;5072516;28;20444;-71
2021/01/26 04:06:39;;;;;;;14.50;7.83;;;4.00;97.30;;;;;;5072470;28;20428;-71
2021/01/26 04:09:15;;;;;;;15.40;8.63;;;3.90;97.30;;;;;;5072485;28;20432;-71
2021/01/26 04:11:54;;;;;;;15.60;9.93;;;4.00;97.40;;;;;;5072414;28;20509;-71
2021/01/26 04:14:29;;;;;;;18.07;9.10;;;4.00;97.40;;;;;;5075461;28;20475;-71
2021/01/26 04:17:04;;;;;;;14.40;8.80;;;4.00;97.20;;;;;;5075947;28;20428;-71
2021/01/26 04:19:42;;;;;;;12.57;8.20;;;4.10;97.50;;;;;;5075862;28;20846;-71
2021/01/26 04:22:12;;;;;;;13.23;6.50;;;4.10;97.00;;;;;;5075921;28;20425;-71
2021/01/26 04:24:42;;;;;;;12.40;7.70;;;4.10;96.90;;;;;;5076054;28;20472;-71
2021/01/26 04:27:17;;;;;;;15.33;7.90;;;4.10;96.70;;;;;;5075751;28;20579;-71
2021/01/26 04:29:44;;;;;;;12.97;7.10;;;4.10;96.60;;;;;;5075614;28;20440;-71
2021/01/26 04:32:11;;;;;;;19.73;7.27;;;4.10;96.70;;;;;;5075539;28;20979;-70
2021/01/26 04:34:44;;;;;;;22.23;8.20;;;4.10;96.70;;;;;;5075590;28;20471;-71
2021/01/26 04:37:19;;;;;;;14.17;6.60;;;4.10;96.70;;;;;;5075590;28;20444;-70
2021/01/26 04:39:48;;;;;;;19.87;6.57;;;4.10;96.60;;;;;;5075540;28;20452;-70
2021/01/26 04:42:19;;;;;;;15.33;7.37;;;4.10;96.60;;;;;;5075434;28;20550;-71
2021/01/26 04:45:04;;;;;;;13.73;6.57;;;4.10;96.70;;;;;;5075660;28;20518;-70
2021/01/26 04:47:43;;;;;;;14.77;6.40;;;4.10;96.60;;;;;;5075365;28;20519;-70
2021/01/26 04:50:29;;;;;;;14.23;6.67;;;4.10;96.60;;;;;;5075270;28;20464;-70
2021/01/26 04:53:11;;;;;;;13.30;7.87;;;4.10;96.60;;;;;;5075537;28;20439;-70
2021/01/26 04:55:50;;;;;;;14.73;6.97;;;4.10;96.50;;;;;;5075496;28;20478;-70
2021/01/26 04:58:50;;;;;;;14.90;6.43;;;4.20;96.50;;;;;;5075206;28;20458;-70
2021/01/26 05:01:44;;;;;;;15.63;8.20;;;4.20;96.60;;;;;;5073427;28;20509;-70
2021/01/26 05:04:18;;;;;;;13.70;6.60;;;4.10;96.60;;;;;;5075076;28;20460;-70
2021/01/26 05:06:58;;;;;;;15.50;6.90;;;4.10;96.80;;;;;;5075044;28;20432;-70
2021/01/26 05:09:30;;;;;;;13.80;6.90;;;4.10;97.20;;;;;;5074996;28;20425;-71
2021/01/26 05:11:58;;;;;;;17.97;6.27;;;4.10;97.30;;;;;;5074725;28;20832;-71
2021/01/26 05:14:31;;;;;;;13.83;7.00;;;4.10;97.40;;;;;;5074793;28;20468;-71
2021/01/26 05:17:03;;;;;;;19.97;6.40;;;4.10;97.50;;;;;;5074808;28;20444;-70
2021/01/26 05:19:38;;;;;;;18.27;8.10;;;4.10;97.40;;;;;;5074774;28;20433;-71
2021/01/26 05:22:09;;;;;;;14.63;7.07;;;4.20;97.50;;;;;;5075017;28;20522;-71
2021/01/26 05:24:39;;;;;;;21.23;7.30;;;4.20;97.40;;;;;;5073761;28;20556;-70
2021/01/26 05:27:11;;;;;;;13.13;7.20;;;4.20;97.20;;;;;;5075115;28;20501;-71
2021/01/26 05:29:42;;;;;;;17.73;6.73;;;4.20;97.20;;;;;;5074330;28;20478;-71
2021/01/26 05:32:17;;;;;;;12.57;6.37;;;4.20;97.00;;;;;;5074477;28;20433;-70
2021/01/26 05:34:44;;;;;;;12.90;7.40;;;4.10;96.90;;;;;;5074383;28;20470;-70
2021/01/26 05:37:15;;;;;;;10.90;6.67;;;4.10;97.00;;;;;;5074409;28;20448;-70
2021/01/26 05:39:49;;;;;;;10.20;6.23;;;4.10;97.10;;;;;;5074667;28;20496;-71
2021/01/26 05:42:18;;;;;;;15.37;6.07;;;4.00;97.20;;;;;;5074279;28;20771;-70
2021/01/26 05:44:52;;;;;;;11.83;7.60;;;4.00;97.30;;;;;;5074093;28;20840;-71
2021/01/26 05:47:31;;;;;;;14.93;7.80;;;4.00;97.30;;;;;;5074197;28;20531;-71
2021/01/26 05:49:59;;;;;;;13.10;7.43;;;3.90;97.60;;;;;;5074215;28;20429;-71
2021/01/26 05:52:35;;;;;;;13.40;7.90;;;3.80;97.50;;;;;;5074201;28;20489;-71
2021/01/26 05:55:16;;;;;;;11.37;7.87;;;3.80;97.80;;;;;;5073729;28;20966;-71
2021/01/26 05:57:49;;;;;;;14.50;7.93;;;3.80;98.00;;;;;;5074037;28;20436;-70
2021/01/26 06:00:23;;;;;;;14.37;8.17;;;3.80;98.30;;;;;;5073582;28;20448;-70
2021/01/26 06:03:11;;;;;;;13.90;8.33;;;3.80;98.30;;;;;;5074191;28;20438;-70
2021/01/26 06:05:41;;;;;;;21.13;9.13;;;3.80;98.50;;;;;;5073806;28;20524;-71
2021/01/26 06:08:13;;;;;;;14.97;9.00;;;3.80;98.60;;;;;;5074074;28;20515;-71
2021/01/26 06:10:46;;;;;;;19.63;8.93;;;3.80;98.60;;;;;;5073568;28;20464;-71
2021/01/26 06:13:22;;;;;;;18.57;8.33;;;3.90;98.70;;;;;;5073672;28;20429;-70
2021/01/26 06:15:50;;;;;;;16.67;8.20;;;3.80;98.60;;;;;;5073571;28;20555;-70
2021/01/26 06:18:21;;;;;;;12.60;7.90;;;3.90;98.60;;;;;;5073668;28;20443;-70
2021/01/26 06:21:08;;;;;;;20.60;8.80;;;3.90;98.50;;;;;;5073605;28;20421;-70
2021/01/26 06:23:39;;;;;;;20.13;9.70;;;3.90;98.40;;;;;;5073822;28;20436;-70
2021/01/26 06:26:09;;;;;;;18.37;8.70;;;3.90;98.30;;;;;;5073488;28;20436;-70
2021/01/26 06:29:02;;;;;;;15.60;8.03;;;3.90;98.10;;;;;;5073394;28;20456;-70
2021/01/26 06:31:58;;;;;;;16.97;8.17;;;3.90;98.00;;;;;;5073402;28;20471;-70
2021/01/26 06:35:08;;;;;;;20.13;8.17;;;3.90;98.30;;;;;;5073604;28;20612;-71
2021/01/26 06:37:55;;;;;;;22.57;9.00;;;3.90;97.90;;;;;;5066253;28;20464;-70
2021/01/26 06:40:54;;;;;;;19.90;8.80;;;3.90;97.90;;;;;;5073488;28;20443;-69
2021/01/26 06:43:37;;;;;;;21.43;11.17;;;3.90;98.00;;;;;;5040075;28;20523;-69
2021/01/26 06:46:12;;;;;;;16.40;9.73;;;3.90;98.10;;;;;;5073297;28;20432;-69
2021/01/26 06:48:51;;;;;;;12.17;8.40;;;3.90;98.20;;;;;;5073568;28;20424;-68
2021/01/26 06:51:51;;;;;;;21.13;9.13;;;3.90;98.20;;;;;;5073434;28;20463;-69
2021/01/26 06:54:38;;;;;;;17.83;8.97;;;3.90;98.10;;;;;;5073125;28;20468;-68
2021/01/26 06:57:27;;;;;;;17.57;10.20;;;3.90;98.20;;;;;;5073160;28;20432;-69
2021/01/26 07:00:20;;;;;;;15.87;8.57;;;3.80;98.00;;;;;;5073130;28;20451;-70
2021/01/26 07:03:46;;;;;;;18.90;9.73;;;3.70;98.10;;;;;;5073153;28;20435;-70
2021/01/26 07:06:47;;;;;;;17.73;10.17;;;3.60;98.30;;;;;;5063750;28;20447;-70
2021/01/26 07:09:53;;;;;;;23.10;9.83;;;3.60;98.60;;;;;;5073023;28;20431;-69
2021/01/26 07:12:50;;;;;;;21.80;10.60;;;3.70;98.80;;;;;;5011058;28;20553;-70
2021/01/26 07:15:33;;;;;;;13.87;9.70;;;3.70;98.90;;;;;;5070485;28;20476;-69
2021/01/26 07:18:39;;;;;;;15.87;10.27;;;3.70;99.00;;;;;;5073290;28;20462;-69
2021/01/26 07:21:22;;;;;;;17.40;8.30;;;3.80;99.00;;;;;;5057579;28;20456;-69
2021/01/26 07:24:06;;;;;;;19.60;11.13;;;3.80;99.00;;;;;;5072852;28;20428;-69
2021/01/26 07:27:06;;;;;;;19.30;9.50;;;3.80;99.00;;;;;;5073128;28;20475;-70
2021/01/26 07:29:54;;;;;;;18.20;9.03;;;3.80;99.00;;;;;;5070146;28;20946;-69
2021/01/26 07:32:28;;;;;;;19.60;10.80;;;3.80;98.90;;;;;;5070689;28;20535;-71
2021/01/26 07:35:03;;;;;;;27.20;10.53;;;3.80;98.80;;;;;;5072680;28;20463;-71
2021/01/26 07:37:40;;;;;;;19.63;8.40;;;3.80;98.80;;;;;;5073060;28;20427;-71
2021/01/26 07:40:16;;;;;;;19.27;9.07;;;3.80;98.80;;;;;;5073069;28;20471;-70
2021/01/26 07:42:56;;;;;;;20.27;10.70;;;3.80;98.80;;;;;;5072952;28;20428;-70
2021/01/26 07:45:31;;;;;;;16.37;9.00;;;3.80;98.80;;;;;;5072823;28;20509;-70
2021/01/26 07:48:08;;;;;;;22.50;9.00;;;3.90;98.80;;;;;;5073767;28;20420;-70
2021/01/26 07:50:40;;;;;;;12.47;8.20;;;3.90;98.70;;;;;;5076213;28;20473;-70
2021/01/26 07:53:18;;;;;;;18.30;8.50;;;3.90;98.80;;;;;;5076405;28;20439;-70
2021/01/26 07:55:51;;;;;;;15.60;7.53;;;3.90;98.60;;;;;;5076251;28;20471;-70
2021/01/26 07:58:20;;;;;;;12.70;7.23;;;3.90;98.30;;;;;;5076077;28;20546;-70
2021/01/26 08:00:51;;;;;;;12.90;7.40;;;3.90;98.20;;;;;;5076566;28;20444;-70
2021/01/26 08:03:25;;;;;;;9.40;6.47;;;3.90;98.40;;;;;;5076251;28;20440;-70
2021/01/26 08:05:54;;;;;;;21.03;8.10;;;3.90;98.40;;;;;;5076404;28;20945;-70
2021/01/26 08:08:32;;;;;;;20.93;8.57;;;3.90;98.30;;;;;;5076225;28;20447;-70
2021/01/26 08:11:20;;;;;;;11.93;6.90;;;3.90;98.20;;;;;;5075871;28;20556;-70
2021/01/26 08:13:56;;;;;;;13.63;6.70;;;3.90;98.20;;;;;;5076290;28;20486;-71
2021/01/26 08:16:32;;;;;;;15.23;8.30;;;3.90;98.30;;;;;;5075706;28;20446;-70
2021/01/26 08:19:02;;;;;;;12.87;6.83;;;3.90;98.20;;;;;;5076010;28;20435;-70
2021/01/26 08:21:41;;;;;;;12.20;8.20;;;4.00;98.20;;;;;;5076271;28;20429;-70
2021/01/26 08:24:18;;;;;;;13.23;7.10;;;4.00;98.10;;;;;;5075934;28;20486;-70
2021/01/26 08:26:49;;;;;;;12.13;6.90;;;4.00;98.00;;;;;;5076352;28;20557;-70
2021/01/26 08:29:55;;;;;;;15.50;7.47;;;3.90;97.90;;;;;;5076673;28;20452;-70
2021/01/26 08:32:56;;;;;;;17.77;9.23;;;3.90;98.10;;;;;;5055772;28;20536;-70
2021/01/26 08:35:53;;;;;;;11.40;7.07;;;3.90;98.30;;;;;;5075856;28;20463;-70
2021/01/26 08:38:48;;;;;;;10.20;6.37;;;3.90;98.30;;;;;;5075192;28;20491;-70
2021/01/26 08:41:40;;;;;;;13.20;6.50;;;3.90;98.20;;;;;;5075981;28;20499;-70
2021/01/26 08:44:30;;;;;;;13.80;6.53;;;3.90;98.20;;;;;;5072705;28;20480;-70
2021/01/26 08:46:59;;;;;;;22.50;6.33;;;3.90;98.30;;;;;;5075210;28;20447;-70
2021/01/26 08:49:30;;;;;;;14.97;7.43;;;3.90;98.20;;;;;;5075681;28;20561;-70
2021/01/26 08:52:29;;;;;;;14.03;6.30;;;3.90;98.20;;;;;;5075534;28;20484;-70
2021/01/26 08:55:04;;;;;;;16.67;7.70;;;4.00;98.10;;;;;;5074656;28;20498;-70
2021/01/26 08:57:44;;;;;;;16.47;6.70;;;4.00;98.00;;;;;;5075661;28;20435;-70
2021/01/26 09:00:37;;;;;;;16.57;6.87;;;4.10;97.80;;;;;;5074970;28;20438;-70
2021/01/26 09:03:31;;;;;;;12.47;7.27;;;4.10;98.00;;;;;;5075157;28;20532;-70
2021/01/26 09:06:10;;;;;;;12.17;6.53;;;4.10;97.90;;;;;;5075043;28;20492;-70
2021/01/26 09:08:52;;;;;;;18.50;7.23;;;4.20;97.80;;;;;;5075487;28;20516;-70
2021/01/26 09:11:39;;;;;;;14.40;7.83;;;4.20;98.20;;;;;;5074756;28;20516;-70
2021/01/26 09:14:35;;;;;;;18.17;7.43;;;4.10;97.50;;;;;;5074990;28;20469;-70
2021/01/26 09:17:10;;;;;;;14.13;7.40;;;4.20;97.90;;;;;;5074718;28;20445;-70
2021/01/26 09:19:41;;;;;;;17.43;7.43;;;4.20;97.60;;;;;;5075174;28;20466;-70
2021/01/26 09:22:17;;;;;;;14.30;7.40;;;4.20;97.80;;;;;;5074741;28;20436;-70
2021/01/26 09:24:47;;;;;;;13.60;7.00;;;4.20;97.70;;;;;;5074711;28;20601;-70
2021/01/26 09:27:27;;;;;;;13.80;7.43;;;4.20;97.60;;;;;;5074636;28;20474;-70
2021/01/26 09:30:15;;;;;;;13.23;7.37;;;4.20;97.50;;;;;;5074710;28;20435;-70
2021/01/26 09:33:01;;;;;;;22.77;8.13;;;4.30;97.70;;;;;;5074675;28;20437;-70
2021/01/26 09:35:40;;;;;;;10.87;7.63;;;4.30;97.60;;;;;;5074415;28;20495;-70
2021/01/26 09:38:11;;;;;;;12.00;8.00;;;4.40;97.50;;;;;;5074484;28;20428;-70
2021/01/26 09:40:46;;;;;;;15.83;8.17;;;4.50;97.30;;;;;;5074472;28;20436;-70
2021/01/26 09:43:21;;;;;;;18.97;8.07;;;4.50;97.50;;;;;;5072828;28;20535;-70
2021/01/26 09:46:13;;;;;;;18.73;8.23;;;4.60;97.40;;;;;;5074277;28;20468;-70
2021/01/26 09:48:46;;;;;;;16.43;7.90;;;4.60;96.90;;;;;;5074585;28;20434;-70
2021/01/26 09:51:20;;;;;;;14.80;7.73;;;4.70;96.80;;;;;;5074087;28;20466;-70
2021/01/26 09:53:50;;;;;;;18.20;8.87;;;4.60;96.90;;;;;;5074091;28;20478;-70
2021/01/26 09:56:25;;;;;;;15.03;8.07;;;4.60;96.90;;;;;;5074192;28;20440;-70
2021/01/26 09:58:54;;;;;;;12.10;8.33;;;4.60;96.80;;;;;;5074025;28;20519;-70
2021/01/26 10:01:27;;;;;;;12.20;9.00;;;4.70;97.00;;;;;;5073925;28;20445;-70
2021/01/26 10:04:00;;;;;;;12.63;8.50;;;4.70;96.80;;;;;;5074068;28;20432;-70
2021/01/26 10:06:33;;;;;;;16.23;8.67;;;4.70;96.60;;;;;;5073994;28;20433;-69
2021/01/26 10:09:21;;;;;;;14.80;9.60;;;4.60;96.60;;;;;;5073903;28;20429;-69
2021/01/26 10:14:32;;;;;;;14.87;8.63;;;4.60;97.10;;;;;;5072162;28;20833;-70
2021/01/26 10:17:03;;;;;;;13.67;7.47;;;4.70;96.80;;;;;;5073728;28;20465;-70
2021/01/26 10:19:39;;;;;;;16.00;8.60;;;4.80;96.40;;;;;;5073555;28;20849;-69
2021/01/26 10:22:13;;;;;;;17.73;8.20;;;4.80;96.60;;;;;;5073926;28;20427;-70
2021/01/26 10:24:45;;;;;;;14.30;8.57;;;4.80;96.60;;;;;;5073425;28;20464;-70
2021/01/26 10:27:14;;;;;;;22.47;8.40;;;4.80;96.50;;;;;;5073545;28;20432;-70
2021/01/26 10:29:45;;;;;;;11.73;7.70;;;4.80;96.00;;;;;;5073508;28;20449;-69
2021/01/26 10:32:47;;;;;;;13.97;8.67;;;4.80;96.30;;;;;;5073609;28;20468;-70
2021/01/26 10:35:31;;;;;;;12.67;8.30;;;4.90;96.30;;;;;;5073417;28;20490;-69
2021/01/26 10:38:19;;;;;;;10.73;7.83;;;5.00;96.60;;;;;;5073889;28;20519;-69
2021/01/26 10:41:07;;;;;;;19.00;9.70;;;4.90;96.40;;;;;;5073571;28;20490;-69
2021/01/26 10:43:34;;;;;;;18.03;7.43;;;5.00;96.30;;;;;;5073441;28;20435;-69
2021/01/26 10:46:04;;;;;;;12.57;8.10;;;4.90;96.30;;;;;;5073188;28;20472;-69
2021/01/26 10:48:33;;;;;;;15.03;9.00;;;4.90;96.60;;;;;;5073182;28;20432;-69
2021/01/26 10:51:20;;;;;;;13.30;8.90;;;4.90;96.30;;;;;;5073043;28;20489;-69
2021/01/26 10:53:50;;;;;;;14.33;9.03;;;4.90;96.50;;;;;;5073149;28;20429;-69
2021/01/26 10:56:19;;;;;;;20.67;9.77;;;5.00;96.50;;;;;;5073229;28;20445;-69
2021/01/26 10:58:49;;;;;;;16.70;8.63;;;4.90;96.50;;;;;;5073236;28;20451;-69
2021/01/26 11:01:19;;;;;;;13.83;8.13;;;5.10;96.50;;;;;;5073172;28;20436;-69
2021/01/26 11:03:48;;;;;;;12.27;7.47;;;5.10;96.10;;;;;;5073079;28;20432;-69
2021/01/26 11:06:20;;;;;;;12.53;7.50;;;5.20;96.00;;;;;;5073003;28;20448;-69
2021/01/26 11:08:48;;;;;;;16.67;8.47;;;5.20;96.10;;;;;;5073309;28;20428;-69
2021/01/26 11:11:18;;;;;;;16.57;8.40;;;5.10;96.00;;;;;;5072728;28;20521;-69
2021/01/26 11:13:51;;;;;;;16.07;8.73;;;5.10;96.10;;;;;;5072778;28;20926;-70
2021/01/26 11:16:20;;;;;;;16.07;9.00;;;5.10;95.90;;;;;;5073210;28;20435;-70
2021/01/26 11:18:49;;;;;;;12.20;7.70;;;5.10;96.00;;;;;;5072735;28;20468;-70
2021/01/26 11:21:17;;;;;;;11.17;8.00;;;5.20;96.00;;;;;;5072738;28;20428;-70
2021/01/26 11:23:44;;;;;;;15.63;8.47;;;5.10;95.90;;;;;;5076791;28;20441;-70
2021/01/26 11:26:17;;;;;;;12.10;7.80;;;5.10;96.10;;;;;;5076843;28;20460;-69
2021/01/26 11:28:45;;;;;;;14.43;7.60;;;5.10;96.10;;;;;;5076898;28;20425;-69
2021/01/26 11:31:14;;;;;;;12.80;7.50;;;5.10;95.90;;;;;;5076610;28;20480;-70
2021/01/26 11:33:44;;;;;;;14.20;8.30;;;5.10;95.80;;;;;;5076655;28;20474;-69
2021/01/26 11:36:17;;;;;;;18.73;8.77;;;5.00;96.00;;;;;;5076755;28;20486;-69
2021/01/26 11:38:44;;;;;;;14.47;8.47;;;5.00;96.00;;;;;;5076721;28;20433;-70
2021/01/26 11:41:11;;;;;;;10.33;7.80;;;5.00;96.10;;;;;;5076544;28;20440;-69
2021/01/26 11:43:45;;;;;;;12.43;8.47;;;4.90;96.10;;;;;;5076437;28;20544;-70
2021/01/26 11:46:13;;;;;;;16.20;8.33;;;5.00;96.40;;;;;;5076474;28;20561;-70
2021/01/26 11:48:43;;;;;;;12.23;7.57;;;5.00;96.50;;;;;;5076599;28;20505;-70
2021/01/26 11:51:11;;;;;;;11.30;7.50;;;5.00;96.30;;;;;;5076294;28;20530;-70
2021/01/26 11:53:41;;;;;;;12.03;7.00;;;5.00;96.50;;;;;;5076706;28;20431;-70
2021/01/26 11:56:11;;;;;;;19.53;8.13;;;5.00;96.70;;;;;;5076341;28;20578;-69
2021/01/26 11:58:39;;;;;;;13.03;7.57;;;5.00;97.00;;;;;;5076238;28;20449;-69
2021/01/26 12:01:09;;;;;;;24.43;8.40;;;5.10;97.10;;;;;;5075964;28;20795;-69
2021/01/26 12:03:40;;;;;;;18.53;9.20;;;5.10;97.00;;;;;;5076186;28;20440;-71
2021/01/26 12:06:10;;;;;;;14.60;7.43;;;5.20;97.00;;;;;;5076534;28;20797;-71
2021/01/26 12:08:40;;;;;;;16.70;8.50;;;5.30;96.90;;;;;;5076258;28;20433;-71
2021/01/26 12:11:10;;;;;;;15.13;8.40;;;5.20;96.70;;;;;;5076426;28;20483;-71
2021/01/26 12:13:37;;;;;;;14.20;8.77;;;5.30;96.90;;;;;;5075991;28;20437;-71
2021/01/26 12:16:06;;;;;;;11.97;8.73;;;5.30;96.80;;;;;;5075971;28;20448;-71
2021/01/26 12:18:38;;;;;;;16.27;8.93;;;5.30;96.90;;;;;;5075945;28;20444;-71
2021/01/26 12:21:06;;;;;;;11.33;7.37;;;5.40;96.80;;;;;;5075873;28;20420;-71
2021/01/26 12:23:36;;;;;;;14.13;7.67;;;5.50;96.50;;;;;;5075845;28;20463;-71
2021/01/26 12:26:07;;;;;;;13.00;7.70;;;5.60;96.30;;;;;;5075786;28;20468;-71
2021/01/26 12:28:41;;;;;;;10.73;8.37;;;5.70;96.30;;;;;;5075818;28;20437;-71
2021/01/26 12:31:16;;;;;;;17.33;8.33;;;5.80;96.10;;;;;;5075928;28;20521;-71
2021/01/26 12:33:52;;;;;;;17.20;10.00;;;5.90;95.90;;;;;;5074701;28;20448;-71
2021/01/26 12:36:19;;;;;;;10.27;8.10;;;6.00;95.60;;;;;;5075662;28;20493;-71
2021/01/26 12:38:47;;;;;;;13.80;7.47;;;6.10;95.10;;;;;;5075638;28;20787;-71
2021/01/26 12:41:16;;;;;;;15.67;9.13;;;6.10;94.80;;;;;;5075915;28;20440;-71
2021/01/26 12:43:43;;;;;;;13.13;9.00;;;6.30;94.90;;;;;;5075393;28;20951;-71
2021/01/26 12:46:16;;;;;;;10.83;7.47;;;6.30;94.80;;;;;;5074863;28;20543;-71
2021/01/26 12:48:45;;;;;;;14.30;8.50;;;6.40;94.30;;;;;;5075370;28;20457;-71
2021/01/26 12:51:13;;;;;;;12.77;7.30;;;6.60;94.10;;;;;;5074818;28;20480;-71
2021/01/26 12:53:41;;;;;;;15.20;6.87;;;6.70;93.40;;;;;;5075261;28;20449;-71
2021/01/26 12:56:11;;;;;;;9.37;6.73;;;7.00;93.20;;;;;;5075278;28;20440;-71
2021/01/26 12:58:39;;;;;;;8.33;6.10;;;7.10;92.40;;;;;;5075191;28;20425;-71
2021/01/26 13:01:10;;;;;;;12.70;5.73;;;7.20;92.00;;;;;;5074883;28;20445;-71
2021/01/26 13:03:38;;;;;;;9.10;5.87;;;7.30;91.80;;;;;;5075188;28;20486;-71
2021/01/26 13:06:09;;;;;;;9.10;5.90;;;7.50;91.50;;;;;;5075067;28;20908;-71
2021/01/26 13:08:47;;;;;;;11.83;6.47;;;7.50;91.10;;;;;;5075113;28;20428;-71
2021/01/26 13:11:14;;;;;;;13.03;5.73;;;7.60;90.90;;;;;;5074701;28;20495;-71
2021/01/26 13:13:41;;;;;;;9.07;6.00;;;7.90;90.40;;;;;;5074827;28;20502;-71
2021/01/26 13:16:11;;;;;;;9.83;6.03;;;8.20;89.40;;;;;;5075196;28;20519;-71
2021/01/26 13:18:39;;;;;;;9.20;6.00;;;8.20;89.10;;;;;;5075112;28;20455;-71
2021/01/26 13:21:07;;;;;;;11.47;5.50;;;8.30;88.90;;;;;;5074698;28;20491;-71
2021/01/26 13:23:37;;;;;;;15.67;5.30;;;8.20;87.80;;;;;;5074759;28;20429;-71
2021/01/26 13:26:06;;;;;;;9.40;4.73;;;8.50;87.10;;;;;;5074563;28;20464;-71
2021/01/26 13:28:36;;;;;;;8.50;5.30;;;8.90;86.20;;;;;;5074686;28;20598;-71
2021/01/26 13:31:07;;;;;;;9.20;4.73;;;8.90;83.50;;;;;;5074489;28;20483;-71